sensor_id;sensor_type;location;lat;lon;timestamp;P1;durP1;ratioP1;P2;durP2;ratioP2
5483;SDS011;2764;48.794;8.326;2023-10-13T00:00:17;13.60;;;5.70;;
5483;SDS011;2764;48.794;8.326;2023-10-13T00:01:27;14.23;;;5.97;;
5483;SDS011;2764;48.794;8.326;2023-10-13T00:02:29;10.27;;;5.67;;
5483;SDS011;2764;48.794;8.326;2023-10-13T00:03:31;12.20;;;5.43;;
5483;SDS011;2764;48.794;8.326;2023-10-13T00:04:33;17.40;;;6.27;;
5483;SDS011;2764;48.794;8.326;2023-10-13T00:05:37;12.57;;;6.10;;
5483;SDS011;2764;48.794;8.326;2023-10-13T00:06:39;8.50;;;5.53;;
5483;SDS011;2764;48.794;8.326;2023-10-13T00:07:40;8.33;;;5.37;;
5483;SDS011;2764;48.794;8.326;2023-10-13T00:08:42;16.23;;;6.07;;
5483;SDS011;2764;48.794;8.326;2023-10-13T00:09:43;9.90;;;5.70;;
5483;SDS011;2764;48.794;8.326;2023-10-13T00:10:45;12.33;;;5.53;;
5483;SDS011;2764;48.794;8.326;2023-10-13T00:11:48;7.73;;;5.73;;
5483;SDS011;2764;48.794;8.326;2023-10-13T00:12:50;12.53;;;5.50;;
5483;SDS011;2764;48.794;8.326;2023-10-13T00:13:52;11.60;;;5.13;;
5483;SDS011;2764;48.794;8.326;2023-10-13T00:14:55;10.47;;;5.67;;
5483;SDS011;2764;48.794;8.326;2023-10-13T00:15:57;14.70;;;5.83;;
5483;SDS011;2764;48.794;8.326;2023-10-13T00:17:05;18.27;;;6.10;;
5483;SDS011;2764;48.794;8.326;2023-10-13T00:18:07;19.27;;;5.57;;
5483;SDS011;2764;48.794;8.326;2023-10-13T00:19:14;10.67;;;6.40;;
5483;SDS011;2764;48.794;8.326;2023-10-13T00:20:15;19.80;;;5.87;;
5483;SDS011;2764;48.794;8.326;2023-10-13T00:21:37;11.13;;;5.70;;
5483;SDS011;2764;48.794;8.326;2023-10-13T00:22:38;15.80;;;5.70;;
5483;SDS011;2764;48.794;8.326;2023-10-13T00:23:43;11.73;;;5.10;;
5483;SDS011;2764;48.794;8.326;2023-10-13T00:24:54;11.83;;;5.83;;
5483;SDS011;2764;48.794;8.326;2023-10-13T00:26:00;11.63;;;5.57;;
5483;SDS011;2764;48.794;8.326;2023-10-13T00:27:03;8.77;;;5.90;;
5483;SDS011;2764;48.794;8.326;2023-10-13T00:28:07;17.83;;;6.40;;
5483;SDS011;2764;48.794;8.326;2023-10-13T00:29:12;13.87;;;5.40;;
5483;SDS011;2764;48.794;8.326;2023-10-13T00:30:14;10.77;;;6.00;;
5483;SDS011;2764;48.794;8.326;2023-10-13T00:31:19;7.80;;;5.40;;
5483;SDS011;2764;48.794;8.326;2023-10-13T00:32:23;9.10;;;5.73;;
5483;SDS011;2764;48.794;8.326;2023-10-13T00:33:28;10.13;;;5.50;;
5483;SDS011;2764;48.794;8.326;2023-10-13T00:34:33;10.73;;;5.93;;
5483;SDS011;2764;48.794;8.326;2023-10-13T00:35:42;7.30;;;5.43;;
5483;SDS011;2764;48.794;8.326;2023-10-13T00:36:44;14.43;;;5.43;;
5483;SDS011;2764;48.794;8.326;2023-10-13T00:38:11;12.70;;;6.53;;
5483;SDS011;2764;48.794;8.326;2023-10-13T00:39:18;7.53;;;5.30;;
5483;SDS011;2764;48.794;8.326;2023-10-13T00:40:21;13.87;;;6.17;;
5483;SDS011;2764;48.794;8.326;2023-10-13T00:41:32;13.30;;;5.80;;
5483;SDS011;2764;48.794;8.326;2023-10-13T00:42:57;16.30;;;5.60;;
5483;SDS011;2764;48.794;8.326;2023-10-13T00:44:18;9.67;;;5.23;;
5483;SDS011;2764;48.794;8.326;2023-10-13T00:45:27;8.17;;;5.60;;
5483;SDS011;2764;48.794;8.326;2023-10-13T00:46:31;14.97;;;6.07;;
5483;SDS011;2764;48.794;8.326;2023-10-13T00:47:35;12.67;;;5.13;;
5483;SDS011;2764;48.794;8.326;2023-10-13T00:48:37;12.20;;;5.37;;
5483;SDS011;2764;48.794;8.326;2023-10-13T00:49:44;7.03;;;4.83;;
5483;SDS011;2764;48.794;8.326;2023-10-13T00:50:48;12.77;;;6.07;;
5483;SDS011;2764;48.794;8.326;2023-10-13T00:51:51;13.00;;;5.80;;
5483;SDS011;2764;48.794;8.326;2023-10-13T00:52:52;6.67;;;5.20;;
5483;SDS011;2764;48.794;8.326;2023-10-13T00:53:54;16.80;;;6.33;;
5483;SDS011;2764;48.794;8.326;2023-10-13T00:54:59;8.37;;;5.23;;
5483;SDS011;2764;48.794;8.326;2023-10-13T00:56:02;8.80;;;5.63;;
5483;SDS011;2764;48.794;8.326;2023-10-13T00:57:08;10.13;;;5.93;;
5483;SDS011;2764;48.794;8.326;2023-10-13T00:58:27;12.13;;;5.80;;
5483;SDS011;2764;48.794;8.326;2023-10-13T00:59:30;8.53;;;6.10;;
5483;SDS011;2764;48.794;8.326;2023-10-13T01:00:43;9.17;;;5.70;;
5483;SDS011;2764;48.794;8.326;2023-10-13T01:01:53;14.63;;;6.20;;
5483;SDS011;2764;48.794;8.326;2023-10-13T01:02:57;8.20;;;5.20;;
5483;SDS011;2764;48.794;8.326;2023-10-13T01:04:07;9.73;;;5.80;;
5483;SDS011;2764;48.794;8.326;2023-10-13T01:05:10;24.87;;;5.40;;
5483;SDS011;2764;48.794;8.326;2023-10-13T01:06:21;11.73;;;5.13;;
5483;SDS011;2764;48.794;8.326;2023-10-13T01:07:27;13.50;;;6.50;;
5483;SDS011;2764;48.794;8.326;2023-10-13T01:08:33;12.53;;;5.77;;
5483;SDS011;2764;48.794;8.326;2023-10-13T01:09:40;28.83;;;6.43;;
5483;SDS011;2764;48.794;8.326;2023-10-13T01:10:43;14.57;;;6.30;;
5483;SDS011;2764;48.794;8.326;2023-10-13T01:11:46;20.03;;;6.33;;
5483;SDS011;2764;48.794;8.326;2023-10-13T01:12:49;7.43;;;5.23;;
5483;SDS011;2764;48.794;8.326;2023-10-13T01:13:53;11.53;;;5.40;;
5483;SDS011;2764;48.794;8.326;2023-10-13T01:14:56;15.20;;;5.47;;
5483;SDS011;2764;48.794;8.326;2023-10-13T01:16:01;17.40;;;5.27;;
5483;SDS011;2764;48.794;8.326;2023-10-13T01:17:04;12.03;;;4.80;;
5483;SDS011;2764;48.794;8.326;2023-10-13T01:18:06;10.50;;;5.83;;
5483;SDS011;2764;48.794;8.326;2023-10-13T01:19:16;10.90;;;5.00;;
5483;SDS011;2764;48.794;8.326;2023-10-13T01:20:28;9.80;;;5.17;;
5483;SDS011;2764;48.794;8.326;2023-10-13T01:21:30;8.97;;;5.60;;
5483;SDS011;2764;48.794;8.326;2023-10-13T01:22:34;11.50;;;5.30;;
5483;SDS011;2764;48.794;8.326;2023-10-13T01:23:37;19.20;;;5.70;;
5483;SDS011;2764;48.794;8.326;2023-10-13T01:24:39;8.93;;;5.03;;
5483;SDS011;2764;48.794;8.326;2023-10-13T01:25:41;24.43;;;6.37;;
5483;SDS011;2764;48.794;8.326;2023-10-13T01:26:42;7.50;;;4.73;;
5483;SDS011;2764;48.794;8.326;2023-10-13T01:27:44;15.03;;;5.60;;
5483;SDS011;2764;48.794;8.326;2023-10-13T01:28:51;11.13;;;5.73;;
5483;SDS011;2764;48.794;8.326;2023-10-13T01:29:53;12.07;;;5.60;;
5483;SDS011;2764;48.794;8.326;2023-10-13T01:30:59;10.60;;;4.80;;
5483;SDS011;2764;48.794;8.326;2023-10-13T01:32:01;12.50;;;5.47;;
5483;SDS011;2764;48.794;8.326;2023-10-13T01:33:03;10.30;;;5.20;;
5483;SDS011;2764;48.794;8.326;2023-10-13T01:34:05;11.93;;;5.40;;
5483;SDS011;2764;48.794;8.326;2023-10-13T01:35:07;13.50;;;6.40;;
5483;SDS011;2764;48.794;8.326;2023-10-13T01:36:09;9.50;;;5.57;;
5483;SDS011;2764;48.794;8.326;2023-10-13T01:37:13;12.23;;;5.00;;
5483;SDS011;2764;48.794;8.326;2023-10-13T01:38:17;9.73;;;5.20;;
5483;SDS011;2764;48.794;8.326;2023-10-13T01:39:22;8.67;;;5.40;;
5483;SDS011;2764;48.794;8.326;2023-10-13T01:40:29;8.90;;;5.37;;
5483;SDS011;2764;48.794;8.326;2023-10-13T01:41:35;9.43;;;5.10;;
5483;SDS011;2764;48.794;8.326;2023-10-13T01:42:40;13.63;;;5.60;;
5483;SDS011;2764;48.794;8.326;2023-10-13T01:43:42;8.10;;;4.90;;
5483;SDS011;2764;48.794;8.326;2023-10-13T01:44:44;10.50;;;4.90;;
5483;SDS011;2764;48.794;8.326;2023-10-13T01:45:46;11.70;;;6.10;;
5483;SDS011;2764;48.794;8.326;2023-10-13T01:46:51;9.20;;;4.90;;
5483;SDS011;2764;48.794;8.326;2023-10-13T01:47:53;13.33;;;5.23;;
5483;SDS011;2764;48.794;8.326;2023-10-13T01:48:54;7.70;;;5.43;;
5483;SDS011;2764;48.794;8.326;2023-10-13T01:49:59;12.20;;;6.00;;
5483;SDS011;2764;48.794;8.326;2023-10-13T01:51:22;10.57;;;5.57;;
5483;SDS011;2764;48.794;8.326;2023-10-13T01:52:24;8.83;;;6.30;;
5483;SDS011;2764;48.794;8.326;2023-10-13T01:53:26;11.70;;;5.80;;
5483;SDS011;2764;48.794;8.326;2023-10-13T01:54:30;12.33;;;6.30;;
5483;SDS011;2764;48.794;8.326;2023-10-13T01:55:34;17.73;;;6.00;;
5483;SDS011;2764;48.794;8.326;2023-10-13T01:56:45;33.37;;;5.77;;
5483;SDS011;2764;48.794;8.326;2023-10-13T01:57:46;14.70;;;4.90;;
5483;SDS011;2764;48.794;8.326;2023-10-13T01:58:49;11.20;;;5.07;;
5483;SDS011;2764;48.794;8.326;2023-10-13T01:59:51;16.50;;;5.67;;
5483;SDS011;2764;48.794;8.326;2023-10-13T02:00:52;13.93;;;5.60;;
5483;SDS011;2764;48.794;8.326;2023-10-13T02:01:54;13.40;;;5.80;;
5483;SDS011;2764;48.794;8.326;2023-10-13T02:03:00;10.87;;;5.90;;
5483;SDS011;2764;48.794;8.326;2023-10-13T02:04:02;17.87;;;5.77;;
5483;SDS011;2764;48.794;8.326;2023-10-13T02:05:05;17.83;;;7.37;;
5483;SDS011;2764;48.794;8.326;2023-10-13T02:06:07;11.03;;;5.70;;
5483;SDS011;2764;48.794;8.326;2023-10-13T02:07:12;12.80;;;6.37;;
5483;SDS011;2764;48.794;8.326;2023-10-13T02:08:17;15.40;;;5.47;;
5483;SDS011;2764;48.794;8.326;2023-10-13T02:09:24;14.33;;;5.20;;
5483;SDS011;2764;48.794;8.326;2023-10-13T02:10:28;13.00;;;6.03;;
5483;SDS011;2764;48.794;8.326;2023-10-13T02:11:32;14.27;;;5.10;;
5483;SDS011;2764;48.794;8.326;2023-10-13T02:12:33;28.20;;;5.60;;
5483;SDS011;2764;48.794;8.326;2023-10-13T02:13:43;13.20;;;5.00;;
5483;SDS011;2764;48.794;8.326;2023-10-13T02:14:50;10.00;;;5.50;;
5483;SDS011;2764;48.794;8.326;2023-10-13T02:15:55;8.87;;;5.10;;
5483;SDS011;2764;48.794;8.326;2023-10-13T02:16:58;9.77;;;5.97;;
5483;SDS011;2764;48.794;8.326;2023-10-13T02:18:18;7.60;;;5.23;;
5483;SDS011;2764;48.794;8.326;2023-10-13T02:19:27;9.93;;;5.83;;
5483;SDS011;2764;48.794;8.326;2023-10-13T02:20:29;9.70;;;4.73;;
5483;SDS011;2764;48.794;8.326;2023-10-13T02:21:32;16.13;;;6.50;;
5483;SDS011;2764;48.794;8.326;2023-10-13T02:22:34;12.87;;;5.20;;
5483;SDS011;2764;48.794;8.326;2023-10-13T02:23:39;13.10;;;6.63;;
5483;SDS011;2764;48.794;8.326;2023-10-13T02:24:46;15.17;;;5.93;;
5483;SDS011;2764;48.794;8.326;2023-10-13T02:25:53;14.17;;;6.30;;
5483;SDS011;2764;48.794;8.326;2023-10-13T02:27:03;11.20;;;5.40;;
5483;SDS011;2764;48.794;8.326;2023-10-13T02:28:12;13.20;;;5.00;;
5483;SDS011;2764;48.794;8.326;2023-10-13T02:29:22;8.50;;;5.53;;
5483;SDS011;2764;48.794;8.326;2023-10-13T02:30:24;11.53;;;5.57;;
5483;SDS011;2764;48.794;8.326;2023-10-13T02:31:27;15.57;;;6.80;;
5483;SDS011;2764;48.794;8.326;2023-10-13T02:32:28;14.37;;;5.80;;
5483;SDS011;2764;48.794;8.326;2023-10-13T02:33:32;10.10;;;5.40;;
5483;SDS011;2764;48.794;8.326;2023-10-13T02:34:38;7.77;;;5.80;;
5483;SDS011;2764;48.794;8.326;2023-10-13T02:35:48;11.60;;;6.47;;
5483;SDS011;2764;48.794;8.326;2023-10-13T02:36:56;12.53;;;6.30;;
5483;SDS011;2764;48.794;8.326;2023-10-13T02:37:58;17.10;;;5.97;;
5483;SDS011;2764;48.794;8.326;2023-10-13T02:39:00;10.87;;;5.73;;
5483;SDS011;2764;48.794;8.326;2023-10-13T02:40:06;12.63;;;6.00;;
5483;SDS011;2764;48.794;8.326;2023-10-13T02:41:14;25.73;;;6.50;;
5483;SDS011;2764;48.794;8.326;2023-10-13T02:42:42;16.10;;;6.83;;
5483;SDS011;2764;48.794;8.326;2023-10-13T02:43:44;12.83;;;6.77;;
5483;SDS011;2764;48.794;8.326;2023-10-13T02:44:45;17.30;;;5.50;;
5483;SDS011;2764;48.794;8.326;2023-10-13T02:45:54;12.87;;;6.93;;
5483;SDS011;2764;48.794;8.326;2023-10-13T02:47:03;11.43;;;5.90;;
5483;SDS011;2764;48.794;8.326;2023-10-13T02:48:15;7.23;;;6.00;;
5483;SDS011;2764;48.794;8.326;2023-10-13T02:49:24;15.23;;;6.40;;
5483;SDS011;2764;48.794;8.326;2023-10-13T02:50:28;9.40;;;5.00;;
5483;SDS011;2764;48.794;8.326;2023-10-13T02:51:34;9.07;;;5.90;;
5483;SDS011;2764;48.794;8.326;2023-10-13T02:52:39;16.87;;;5.90;;
5483;SDS011;2764;48.794;8.326;2023-10-13T02:53:43;12.20;;;6.00;;
5483;SDS011;2764;48.794;8.326;2023-10-13T02:54:48;15.30;;;6.93;;
5483;SDS011;2764;48.794;8.326;2023-10-13T02:55:53;14.67;;;6.60;;
5483;SDS011;2764;48.794;8.326;2023-10-13T02:56:54;17.30;;;6.33;;
5483;SDS011;2764;48.794;8.326;2023-10-13T02:58:01;15.40;;;6.40;;
5483;SDS011;2764;48.794;8.326;2023-10-13T02:59:03;12.93;;;6.20;;
5483;SDS011;2764;48.794;8.326;2023-10-13T03:00:07;14.10;;;6.30;;
5483;SDS011;2764;48.794;8.326;2023-10-13T03:01:17;19.67;;;6.70;;
5483;SDS011;2764;48.794;8.326;2023-10-13T03:02:19;17.90;;;6.30;;
5483;SDS011;2764;48.794;8.326;2023-10-13T03:03:31;11.60;;;5.80;;
5483;SDS011;2764;48.794;8.326;2023-10-13T03:04:36;19.63;;;6.13;;
5483;SDS011;2764;48.794;8.326;2023-10-13T03:05:40;17.53;;;6.33;;
5483;SDS011;2764;48.794;8.326;2023-10-13T03:06:44;16.63;;;6.90;;
5483;SDS011;2764;48.794;8.326;2023-10-13T03:07:48;14.27;;;6.17;;
5483;SDS011;2764;48.794;8.326;2023-10-13T03:08:52;9.07;;;5.97;;
5483;SDS011;2764;48.794;8.326;2023-10-13T03:09:54;32.37;;;7.20;;
5483;SDS011;2764;48.794;8.326;2023-10-13T03:10:59;18.33;;;5.90;;
5483;SDS011;2764;48.794;8.326;2023-10-13T03:12:03;12.03;;;5.70;;
5483;SDS011;2764;48.794;8.326;2023-10-13T03:13:05;10.43;;;5.90;;
5483;SDS011;2764;48.794;8.326;2023-10-13T03:14:10;9.87;;;5.70;;
5483;SDS011;2764;48.794;8.326;2023-10-13T03:15:26;10.70;;;5.90;;
5483;SDS011;2764;48.794;8.326;2023-10-13T03:16:32;11.83;;;5.77;;
5483;SDS011;2764;48.794;8.326;2023-10-13T03:17:34;10.50;;;6.37;;
5483;SDS011;2764;48.794;8.326;2023-10-13T03:18:36;16.27;;;5.73;;
5483;SDS011;2764;48.794;8.326;2023-10-13T03:19:43;12.53;;;6.37;;
5483;SDS011;2764;48.794;8.326;2023-10-13T03:20:48;14.80;;;7.73;;
5483;SDS011;2764;48.794;8.326;2023-10-13T03:22:01;10.47;;;6.23;;
5483;SDS011;2764;48.794;8.326;2023-10-13T03:23:11;9.23;;;6.17;;
5483;SDS011;2764;48.794;8.326;2023-10-13T03:24:13;14.10;;;6.47;;
5483;SDS011;2764;48.794;8.326;2023-10-13T03:25:15;12.00;;;6.90;;
5483;SDS011;2764;48.794;8.326;2023-10-13T03:26:25;14.40;;;6.60;;
5483;SDS011;2764;48.794;8.326;2023-10-13T03:27:26;16.70;;;7.30;;
5483;SDS011;2764;48.794;8.326;2023-10-13T03:28:41;17.67;;;7.40;;
5483;SDS011;2764;48.794;8.326;2023-10-13T03:29:45;12.03;;;6.77;;
5483;SDS011;2764;48.794;8.326;2023-10-13T03:30:56;12.43;;;6.27;;
5483;SDS011;2764;48.794;8.326;2023-10-13T03:32:03;14.20;;;6.47;;
5483;SDS011;2764;48.794;8.326;2023-10-13T03:33:13;11.50;;;6.37;;
5483;SDS011;2764;48.794;8.326;2023-10-13T03:34:15;14.70;;;7.50;;
5483;SDS011;2764;48.794;8.326;2023-10-13T03:35:21;23.93;;;7.10;;
5483;SDS011;2764;48.794;8.326;2023-10-13T03:36:26;11.83;;;7.60;;
5483;SDS011;2764;48.794;8.326;2023-10-13T03:37:46;15.53;;;6.50;;
5483;SDS011;2764;48.794;8.326;2023-10-13T03:38:48;18.33;;;7.00;;
5483;SDS011;2764;48.794;8.326;2023-10-13T03:39:56;13.83;;;6.90;;
5483;SDS011;2764;48.794;8.326;2023-10-13T03:41:00;14.13;;;6.20;;
5483;SDS011;2764;48.794;8.326;2023-10-13T03:42:09;7.70;;;6.50;;
5483;SDS011;2764;48.794;8.326;2023-10-13T03:43:13;14.17;;;6.90;;
5483;SDS011;2764;48.794;8.326;2023-10-13T03:44:17;11.37;;;6.13;;
5483;SDS011;2764;48.794;8.326;2023-10-13T03:45:19;11.73;;;7.13;;
5483;SDS011;2764;48.794;8.326;2023-10-13T03:46:23;14.80;;;7.47;;
5483;SDS011;2764;48.794;8.326;2023-10-13T03:47:24;19.73;;;8.43;;
5483;SDS011;2764;48.794;8.326;2023-10-13T03:48:33;14.40;;;6.63;;
5483;SDS011;2764;48.794;8.326;2023-10-13T03:49:42;15.10;;;7.73;;
5483;SDS011;2764;48.794;8.326;2023-10-13T03:50:44;16.63;;;6.60;;
5483;SDS011;2764;48.794;8.326;2023-10-13T03:52:04;23.13;;;7.20;;
5483;SDS011;2764;48.794;8.326;2023-10-13T03:53:07;14.57;;;8.57;;
5483;SDS011;2764;48.794;8.326;2023-10-13T03:54:14;10.67;;;7.33;;
5483;SDS011;2764;48.794;8.326;2023-10-13T03:55:18;11.90;;;6.93;;
5483;SDS011;2764;48.794;8.326;2023-10-13T03:56:27;13.77;;;7.13;;
5483;SDS011;2764;48.794;8.326;2023-10-13T03:57:33;11.83;;;7.07;;
5483;SDS011;2764;48.794;8.326;2023-10-13T03:58:36;14.00;;;7.50;;
5483;SDS011;2764;48.794;8.326;2023-10-13T03:59:44;14.43;;;7.50;;
5483;SDS011;2764;48.794;8.326;2023-10-13T04:00:49;25.70;;;7.37;;
5483;SDS011;2764;48.794;8.326;2023-10-13T04:01:51;18.50;;;7.70;;
5483;SDS011;2764;48.794;8.326;2023-10-13T04:02:54;14.07;;;7.17;;
5483;SDS011;2764;48.794;8.326;2023-10-13T04:04:05;12.53;;;7.17;;
5483;SDS011;2764;48.794;8.326;2023-10-13T04:05:13;19.60;;;8.00;;
5483;SDS011;2764;48.794;8.326;2023-10-13T04:06:34;14.63;;;7.70;;
5483;SDS011;2764;48.794;8.326;2023-10-13T04:08:06;10.37;;;6.80;;
5483;SDS011;2764;48.794;8.326;2023-10-13T04:09:31;17.50;;;7.90;;
5483;SDS011;2764;48.794;8.326;2023-10-13T04:10:32;9.70;;;7.17;;
5483;SDS011;2764;48.794;8.326;2023-10-13T04:11:46;14.87;;;7.70;;
5483;SDS011;2764;48.794;8.326;2023-10-13T04:13:05;23.80;;;8.30;;
5483;SDS011;2764;48.794;8.326;2023-10-13T04:14:26;11.40;;;7.30;;
5483;SDS011;2764;48.794;8.326;2023-10-13T04:15:48;17.27;;;7.83;;
5483;SDS011;2764;48.794;8.326;2023-10-13T04:17:25;16.47;;;8.13;;
5483;SDS011;2764;48.794;8.326;2023-10-13T04:18:30;20.93;;;8.07;;
5483;SDS011;2764;48.794;8.326;2023-10-13T04:19:49;14.07;;;7.50;;
5483;SDS011;2764;48.794;8.326;2023-10-13T04:21:09;18.90;;;8.40;;
5483;SDS011;2764;48.794;8.326;2023-10-13T04:22:34;16.43;;;8.17;;
5483;SDS011;2764;48.794;8.326;2023-10-13T04:23:51;17.03;;;8.00;;
5483;SDS011;2764;48.794;8.326;2023-10-13T04:26:48;17.30;;;7.67;;
5483;SDS011;2764;48.794;8.326;2023-10-13T04:28:09;13.90;;;8.30;;
5483;SDS011;2764;48.794;8.326;2023-10-13T04:29:15;9.53;;;7.67;;
5483;SDS011;2764;48.794;8.326;2023-10-13T04:30:29;16.00;;;8.97;;
5483;SDS011;2764;48.794;8.326;2023-10-13T04:31:49;12.67;;;7.73;;
5483;SDS011;2764;48.794;8.326;2023-10-13T04:33:01;8.63;;;6.83;;
5483;SDS011;2764;48.794;8.326;2023-10-13T04:34:18;11.13;;;7.70;;
5483;SDS011;2764;48.794;8.326;2023-10-13T04:35:29;15.10;;;6.97;;
5483;SDS011;2764;48.794;8.326;2023-10-13T04:36:37;15.80;;;7.27;;
5483;SDS011;2764;48.794;8.326;2023-10-13T04:37:46;12.33;;;6.37;;
5483;SDS011;2764;48.794;8.326;2023-10-13T04:39:03;21.80;;;6.70;;
5483;SDS011;2764;48.794;8.326;2023-10-13T04:40:05;25.87;;;7.97;;
5483;SDS011;2764;48.794;8.326;2023-10-13T04:41:13;13.70;;;7.77;;
5483;SDS011;2764;48.794;8.326;2023-10-13T04:42:24;16.13;;;7.70;;
5483;SDS011;2764;48.794;8.326;2023-10-13T04:43:41;14.63;;;7.20;;
5483;SDS011;2764;48.794;8.326;2023-10-13T04:44:58;9.97;;;7.20;;
5483;SDS011;2764;48.794;8.326;2023-10-13T04:46:17;13.73;;;7.70;;
5483;SDS011;2764;48.794;8.326;2023-10-13T04:47:41;21.30;;;7.97;;
5483;SDS011;2764;48.794;8.326;2023-10-13T04:48:43;14.67;;;7.60;;
5483;SDS011;2764;48.794;8.326;2023-10-13T04:49:49;12.40;;;6.83;;
5483;SDS011;2764;48.794;8.326;2023-10-13T04:50:51;14.00;;;6.83;;
5483;SDS011;2764;48.794;8.326;2023-10-13T04:51:55;14.90;;;7.03;;
5483;SDS011;2764;48.794;8.326;2023-10-13T04:53:00;19.70;;;7.73;;
5483;SDS011;2764;48.794;8.326;2023-10-13T04:54:03;12.50;;;7.30;;
5483;SDS011;2764;48.794;8.326;2023-10-13T04:55:12;13.73;;;8.10;;
5483;SDS011;2764;48.794;8.326;2023-10-13T04:56:38;11.10;;;5.90;;
5483;SDS011;2764;48.794;8.326;2023-10-13T04:57:42;9.07;;;7.13;;
5483;SDS011;2764;48.794;8.326;2023-10-13T04:58:47;14.73;;;6.80;;
5483;SDS011;2764;48.794;8.326;2023-10-13T05:00:08;14.43;;;6.77;;
5483;SDS011;2764;48.794;8.326;2023-10-13T05:01:13;16.50;;;7.80;;
5483;SDS011;2764;48.794;8.326;2023-10-13T05:02:27;16.43;;;7.40;;
5483;SDS011;2764;48.794;8.326;2023-10-13T05:03:38;15.30;;;8.50;;
5483;SDS011;2764;48.794;8.326;2023-10-13T05:04:55;21.60;;;7.20;;
5483;SDS011;2764;48.794;8.326;2023-10-13T05:06:14;12.83;;;6.93;;
5483;SDS011;2764;48.794;8.326;2023-10-13T05:07:35;13.33;;;7.43;;
5483;SDS011;2764;48.794;8.326;2023-10-13T05:08:55;11.60;;;7.37;;
5483;SDS011;2764;48.794;8.326;2023-10-13T05:10:15;28.00;;;8.27;;
5483;SDS011;2764;48.794;8.326;2023-10-13T05:11:35;11.77;;;7.43;;
5483;SDS011;2764;48.794;8.326;2023-10-13T05:12:56;10.60;;;6.10;;
5483;SDS011;2764;48.794;8.326;2023-10-13T05:14:16;9.83;;;7.23;;
5483;SDS011;2764;48.794;8.326;2023-10-13T05:15:43;18.80;;;7.53;;
5483;SDS011;2764;48.794;8.326;2023-10-13T05:17:05;18.70;;;6.87;;
5483;SDS011;2764;48.794;8.326;2023-10-13T05:18:25;11.77;;;6.93;;
5483;SDS011;2764;48.794;8.326;2023-10-13T05:19:46;14.20;;;6.90;;
5483;SDS011;2764;48.794;8.326;2023-10-13T05:21:06;11.30;;;6.87;;
5483;SDS011;2764;48.794;8.326;2023-10-13T05:22:26;18.17;;;6.73;;
5483;SDS011;2764;48.794;8.326;2023-10-13T05:23:47;11.03;;;7.30;;
5483;SDS011;2764;48.794;8.326;2023-10-13T05:25:07;18.00;;;7.00;;
5483;SDS011;2764;48.794;8.326;2023-10-13T05:26:27;10.40;;;6.87;;
5483;SDS011;2764;48.794;8.326;2023-10-13T05:27:48;14.57;;;6.93;;
5483;SDS011;2764;48.794;8.326;2023-10-13T05:29:16;13.10;;;7.23;;
5483;SDS011;2764;48.794;8.326;2023-10-13T05:30:37;15.03;;;7.50;;
5483;SDS011;2764;48.794;8.326;2023-10-13T05:31:58;15.60;;;8.10;;
5483;SDS011;2764;48.794;8.326;2023-10-13T05:33:19;14.03;;;7.90;;
5483;SDS011;2764;48.794;8.326;2023-10-13T05:34:39;13.57;;;6.93;;
5483;SDS011;2764;48.794;8.326;2023-10-13T05:35:59;16.20;;;8.40;;
5483;SDS011;2764;48.794;8.326;2023-10-13T05:37:20;15.33;;;7.47;;
5483;SDS011;2764;48.794;8.326;2023-10-13T05:38:40;12.80;;;6.97;;
5483;SDS011;2764;48.794;8.326;2023-10-13T05:40:01;18.17;;;8.50;;
5483;SDS011;2764;48.794;8.326;2023-10-13T05:41:21;18.70;;;7.33;;
5483;SDS011;2764;48.794;8.326;2023-10-13T05:42:42;15.13;;;7.63;;
5483;SDS011;2764;48.794;8.326;2023-10-13T05:44:02;18.03;;;7.37;;
5483;SDS011;2764;48.794;8.326;2023-10-13T05:45:23;17.47;;;7.33;;
5483;SDS011;2764;48.794;8.326;2023-10-13T05:46:37;13.00;;;6.43;;
5483;SDS011;2764;48.794;8.326;2023-10-13T05:47:40;20.23;;;7.37;;
5483;SDS011;2764;48.794;8.326;2023-10-13T05:48:45;10.80;;;6.00;;
5483;SDS011;2764;48.794;8.326;2023-10-13T05:49:59;12.97;;;7.73;;
5483;SDS011;2764;48.794;8.326;2023-10-13T05:51:16;16.27;;;8.50;;
5483;SDS011;2764;48.794;8.326;2023-10-13T05:52:36;28.73;;;8.57;;
5483;SDS011;2764;48.794;8.326;2023-10-13T05:53:57;15.40;;;8.33;;
5483;SDS011;2764;48.794;8.326;2023-10-13T05:55:17;14.20;;;8.03;;
5483;SDS011;2764;48.794;8.326;2023-10-13T05:56:42;12.60;;;7.40;;
5483;SDS011;2764;48.794;8.326;2023-10-13T05:58:03;14.83;;;7.37;;
5483;SDS011;2764;48.794;8.326;2023-10-13T05:59:23;13.23;;;7.60;;
5483;SDS011;2764;48.794;8.326;2023-10-13T06:00:43;18.33;;;8.90;;
5483;SDS011;2764;48.794;8.326;2023-10-13T06:02:03;17.13;;;8.20;;
5483;SDS011;2764;48.794;8.326;2023-10-13T06:03:23;10.53;;;6.63;;
5483;SDS011;2764;48.794;8.326;2023-10-13T06:04:44;19.03;;;7.40;;
5483;SDS011;2764;48.794;8.326;2023-10-13T06:06:06;13.60;;;7.50;;
5483;SDS011;2764;48.794;8.326;2023-10-13T06:07:26;12.77;;;7.40;;
5483;SDS011;2764;48.794;8.326;2023-10-13T06:08:48;16.00;;;7.17;;
5483;SDS011;2764;48.794;8.326;2023-10-13T06:10:08;15.93;;;8.50;;
5483;SDS011;2764;48.794;8.326;2023-10-13T06:11:45;16.33;;;6.90;;
5483;SDS011;2764;48.794;8.326;2023-10-13T06:13:05;14.20;;;7.40;;
5483;SDS011;2764;48.794;8.326;2023-10-13T06:14:25;14.30;;;7.13;;
5483;SDS011;2764;48.794;8.326;2023-10-13T06:15:45;18.00;;;7.80;;
5483;SDS011;2764;48.794;8.326;2023-10-13T06:17:06;13.00;;;7.97;;
5483;SDS011;2764;48.794;8.326;2023-10-13T06:18:26;14.20;;;7.83;;
5483;SDS011;2764;48.794;8.326;2023-10-13T06:19:46;13.60;;;7.50;;
5483;SDS011;2764;48.794;8.326;2023-10-13T06:21:06;16.17;;;7.40;;
5483;SDS011;2764;48.794;8.326;2023-10-13T06:22:26;13.90;;;7.90;;
5483;SDS011;2764;48.794;8.326;2023-10-13T06:23:47;13.30;;;6.90;;
5483;SDS011;2764;48.794;8.326;2023-10-13T06:25:07;9.10;;;6.93;;
5483;SDS011;2764;48.794;8.326;2023-10-13T06:26:28;17.67;;;7.20;;
5483;SDS011;2764;48.794;8.326;2023-10-13T06:27:48;16.13;;;7.00;;
5483;SDS011;2764;48.794;8.326;2023-10-13T06:29:08;20.87;;;8.10;;
5483;SDS011;2764;48.794;8.326;2023-10-13T06:30:10;14.47;;;7.80;;
5483;SDS011;2764;48.794;8.326;2023-10-13T06:31:11;17.20;;;7.90;;
5483;SDS011;2764;48.794;8.326;2023-10-13T06:32:23;21.97;;;7.60;;
5483;SDS011;2764;48.794;8.326;2023-10-13T06:33:27;17.43;;;7.20;;
5483;SDS011;2764;48.794;8.326;2023-10-13T06:34:35;14.43;;;9.10;;
5483;SDS011;2764;48.794;8.326;2023-10-13T06:35:49;11.53;;;7.07;;
5483;SDS011;2764;48.794;8.326;2023-10-13T06:36:52;22.33;;;8.17;;
5483;SDS011;2764;48.794;8.326;2023-10-13T06:37:56;18.47;;;7.73;;
5483;SDS011;2764;48.794;8.326;2023-10-13T06:39:02;13.53;;;8.60;;
5483;SDS011;2764;48.794;8.326;2023-10-13T06:40:36;19.70;;;9.07;;
5483;SDS011;2764;48.794;8.326;2023-10-13T06:41:39;12.43;;;8.37;;
5483;SDS011;2764;48.794;8.326;2023-10-13T06:42:42;11.30;;;7.80;;
5483;SDS011;2764;48.794;8.326;2023-10-13T06:43:47;21.50;;;9.30;;
5483;SDS011;2764;48.794;8.326;2023-10-13T06:45:01;14.80;;;9.13;;
5483;SDS011;2764;48.794;8.326;2023-10-13T06:46:10;18.70;;;9.40;;
5483;SDS011;2764;48.794;8.326;2023-10-13T06:47:17;17.33;;;8.43;;
5483;SDS011;2764;48.794;8.326;2023-10-13T06:48:21;15.63;;;7.93;;
5483;SDS011;2764;48.794;8.326;2023-10-13T06:49:23;11.87;;;8.20;;
5483;SDS011;2764;48.794;8.326;2023-10-13T06:50:25;11.43;;;8.57;;
5483;SDS011;2764;48.794;8.326;2023-10-13T06:51:27;11.57;;;8.13;;
5483;SDS011;2764;48.794;8.326;2023-10-13T06:52:33;14.97;;;8.80;;
5483;SDS011;2764;48.794;8.326;2023-10-13T06:53:35;12.33;;;7.73;;
5483;SDS011;2764;48.794;8.326;2023-10-13T06:54:38;13.13;;;8.33;;
5483;SDS011;2764;48.794;8.326;2023-10-13T06:55:40;13.03;;;7.43;;
5483;SDS011;2764;48.794;8.326;2023-10-13T06:56:42;12.67;;;8.13;;
5483;SDS011;2764;48.794;8.326;2023-10-13T06:57:44;21.03;;;7.43;;
5483;SDS011;2764;48.794;8.326;2023-10-13T06:58:46;14.13;;;8.10;;
5483;SDS011;2764;48.794;8.326;2023-10-13T06:59:49;12.83;;;8.03;;
5483;SDS011;2764;48.794;8.326;2023-10-13T07:00:50;17.97;;;6.67;;
5483;SDS011;2764;48.794;8.326;2023-10-13T07:01:56;16.87;;;8.50;;
5483;SDS011;2764;48.794;8.326;2023-10-13T07:03:25;15.77;;;8.07;;
5483;SDS011;2764;48.794;8.326;2023-10-13T07:04:27;13.13;;;7.67;;
5483;SDS011;2764;48.794;8.326;2023-10-13T07:05:29;14.60;;;7.50;;